Time;durP1;ratioP1;P1;durP2;ratioP2;P2;SDS_P1;SDS_P2;PMS_P1;PMS_P2;Temp;Humidity;BMP_temperature;BMP_pressure;BME280_temperature;BME280_humidity;BME280_pressure;Samples;Min_cycle;Max_cycle;Signal;HPM_P1;HPM_P2
2023/06/23 00:00:11;;;;;;;20.80;13.82;;;;;;;20.60;94.77;95337.63;5048106;28;20252;-64
2023/06/23 00:02:38;;;;;;;15.23;13.13;;;;;;;20.66;94.71;95344.94;5048808;28;20203;-62
2023/06/23 00:05:07;;;;;;;15.65;12.43;;;;;;;20.67;94.65;95344.03;5048130;28;20688;-63
2023/06/23 00:07:34;;;;;;;15.77;12.32;;;;;;;20.73;94.45;95346.19;5047383;28;20203;-63
2023/06/23 00:10:01;;;;;;;14.45;13.18;;;;;;;20.77;94.08;95345.06;5047831;28;20288;-64
2023/06/23 00:12:27;;;;;;;18.02;13.07;;;;;;;20.75;93.74;95346.09;5048265;28;20281;-63
2023/06/23 00:14:55;;;;;;;17.67;14.27;;;;;;;20.68;93.99;95341.34;5047323;28;20238;-62
2023/06/23 00:17:22;;;;;;;14.95;13.45;;;;;;;20.62;94.12;95336.56;5048834;28;20198;-63
2023/06/23 00:19:49;;;;;;;14.93;13.43;;;;;;;20.65;94.01;95338.97;5046049;28;20284;-63
2023/06/23 00:22:16;;;;;;;18.88;12.85;;;;;;;20.54;94.70;95338.06;5047986;28;20210;-63
2023/06/23 00:24:43;;;;;;;14.77;13.27;;;;;;;20.51;94.81;95348.59;5047593;28;20283;-63
2023/06/23 00:27:10;;;;;;;14.23;12.95;;;;;;;20.48;94.91;95343.63;5047678;28;20734;-64
2023/06/23 00:29:36;;;;;;;15.50;13.90;;;;;;;20.44;95.46;95342.19;5046865;28;20223;-64
2023/06/23 00:32:05;;;;;;;16.13;13.02;;;;;;;20.44;95.21;95335.25;5048088;28;20207;-60
2023/06/23 00:34:31;;;;;;;14.05;12.70;;;;;;;20.49;94.85;95337.53;5046802;28;20207;-63
2023/06/23 00:36:58;;;;;;;13.93;12.52;;;;;;;20.38;95.47;95339.06;5047906;28;20198;-63
2023/06/23 00:39:25;;;;;;;18.67;13.00;;;;;;;20.36;95.39;95338.31;5046740;28;20677;-64
2023/06/23 00:41:51;;;;;;;18.52;14.02;;;;;;;20.34;95.26;95342.75;5047480;28;20599;-63
2023/06/23 00:44:18;;;;;;;15.55;14.10;;;;;;;20.35;95.26;95331.50;5046783;28;20563;-63
2023/06/23 00:46:45;;;;;;;16.35;13.57;;;;;;;20.33;95.07;95338.53;5047022;28;21036;-63
2023/06/23 00:49:14;;;;;;;17.77;13.30;;;;;;;20.32;94.86;95334.28;5046862;28;20313;-62
2023/06/23 00:51:41;;;;;;;17.42;13.52;;;;;;;20.31;94.79;95337.81;5046063;28;20272;-63
2023/06/23 00:54:08;;;;;;;18.20;13.93;;;;;;;20.30;94.69;95331.00;5046289;28;20199;-64
2023/06/23 00:56:36;;;;;;;17.67;12.55;;;;;;;20.31;94.88;95337.81;5045738;28;20255;-63
2023/06/23 00:59:03;;;;;;;18.08;13.68;;;;;;;20.31;94.73;95335.22;5047495;28;20226;-63
2023/06/23 01:01:31;;;;;;;21.13;13.38;;;;;;;20.34;94.52;95335.03;5047731;28;20295;-63
2023/06/23 01:03:59;;;;;;;13.90;12.52;;;;;;;20.40;94.38;95333.00;5044888;28;20206;-64
2023/06/23 01:06:37;;;;;;;14.45;11.35;;;;;;;20.35;94.62;95341.00;5046506;28;20237;-63
2023/06/23 01:09:12;;;;;;;14.35;12.68;;;;;;;20.35;94.31;95339.25;5046993;28;20276;-63
2023/06/23 01:11:45;;;;;;;13.30;12.10;;;;;;;20.36;94.37;95343.47;5044935;28;20210;-62
2023/06/23 01:14:19;;;;;;;16.80;11.75;;;;;;;20.34;94.05;95337.59;5044466;28;20205;-63
2023/06/23 01:16:51;;;;;;;13.68;12.27;;;;;;;20.31;94.25;95337.81;5046650;28;20268;-63
2023/06/23 01:19:28;;;;;;;16.27;12.63;;;;;;;20.30;94.33;95340.47;5045709;28;20253;-64
2023/06/23 01:22:03;;;;;;;17.40;12.95;;;;;;;20.26;94.36;95342.47;5046655;28;20664;-62
2023/06/23 01:24:42;;;;;;;13.90;12.45;;;;;;;20.32;93.78;95339.44;5046115;28;20201;-62
2023/06/23 01:27:42;;;;;;;13.88;12.48;;;;;;;20.28;94.05;95329.47;5046117;28;20311;-64
2023/06/23 01:30:15;;;;;;;14.20;12.80;;;;;;;20.23;93.85;95324.59;5047164;28;20272;-63
2023/06/23 01:32:48;;;;;;;13.13;11.85;;;;;;;20.23;94.03;95329.78;5046120;28;20233;-61
2023/06/23 01:35:22;;;;;;;14.98;13.63;;;;;;;20.17;94.34;95330.16;5043094;28;20204;-63
2023/06/23 01:37:52;;;;;;;14.00;12.82;;;;;;;20.20;94.03;95326.56;5044206;28;20202;-63
2023/06/23 01:40:22;;;;;;;13.65;12.25;;;;;;;20.07;94.63;95323.97;5044440;28;20203;-63
2023/06/23 01:42:52;;;;;;;13.00;11.48;;;;;;;20.03;95.14;95330.28;5045374;28;20210;-62
2023/06/23 01:45:24;;;;;;;18.08;12.85;;;;;;;20.08;94.77;95330.78;5043898;28;20230;-63
2023/06/23 01:47:52;;;;;;;13.90;12.60;;;;;;;20.09;94.60;95327.28;5044131;28;20199;-63
2023/06/23 01:50:21;;;;;;;14.13;12.70;;;;;;;20.08;94.57;95332.53;5046278;28;20219;-62
2023/06/23 01:52:50;;;;;;;15.35;13.88;;;;;;;20.11;94.59;95332.31;5045982;28;20214;-62
2023/06/23 01:55:18;;;;;;;15.07;13.18;;;;;;;20.08;94.47;95324.78;5045973;28;20284;-62
2023/06/23 01:57:47;;;;;;;14.90;13.45;;;;;;;20.03;94.85;95327.69;5046502;28;20203;-61
2023/06/23 02:00:16;;;;;;;14.82;12.75;;;;;;;19.99;94.63;95331.41;5046520;28;20197;-62
2023/06/23 02:02:47;;;;;;;14.93;13.50;;;;;;;20.03;94.60;95338.84;5046310;28;20579;-62
2023/06/23 02:05:15;;;;;;;15.50;13.75;;;;;;;20.02;94.55;95336.38;5046419;28;20227;-61
2023/06/23 02:07:44;;;;;;;16.15;13.55;;;;;;;20.09;94.44;95337.59;5045564;28;20230;-63
2023/06/23 02:10:11;;;;;;;14.75;13.25;;;;;;;20.07;94.48;95342.03;5046597;28;20281;-61
2023/06/23 02:12:41;;;;;;;15.00;13.38;;;;;;;20.11;94.19;95335.75;5047065;28;20230;-60
2023/06/23 02:15:10;;;;;;;14.85;13.65;;;;;;;20.18;93.57;95328.41;5049851;28;20203;-63
2023/06/23 02:17:38;;;;;;;14.95;13.55;;;;;;;20.21;92.81;95334.19;5050697;28;20684;-62
2023/06/23 02:20:16;;;;;;;14.52;13.13;;;;;;;20.18;92.96;95331.81;5049049;28;20195;-61
2023/06/23 02:22:46;;;;;;;16.08;14.48;;;;;;;20.09;93.24;95323.88;5050256;28;20210;-61
2023/06/23 02:25:14;;;;;;;19.58;13.95;;;;;;;20.04;93.25;95334.50;5048786;28;20293;-58
2023/06/23 02:27:41;;;;;;;15.85;14.32;;;;;;;19.96;93.40;95331.59;5050445;28;20321;-61
2023/06/23 02:30:10;;;;;;;14.68;13.43;;;;;;;19.96;93.02;95331.59;5048493;28;20769;-62
2023/06/23 02:32:37;;;;;;;18.20;13.57;;;;;;;19.94;93.27;95333.47;5049166;28;20711;-62
2023/06/23 02:35:07;;;;;;;15.70;14.15;;;;;;;19.88;93.65;95334.69;5047209;28;20387;-62
2023/06/23 02:37:37;;;;;;;13.98;12.77;;;;;;;19.94;93.45;95343.78;5047651;28;20601;-62
2023/06/23 02:40:10;;;;;;;14.80;13.35;;;;;;;19.92;93.40;95340.47;5047280;28;20250;-61
2023/06/23 02:42:42;;;;;;;14.88;13.43;;;;;;;19.95;93.21;95345.44;5049925;28;20211;-62
2023/06/23 02:45:17;;;;;;;21.63;14.50;;;;;;;19.93;93.17;95347.28;5049714;28;20199;-61
2023/06/23 02:47:47;;;;;;;15.93;14.20;;;;;;;19.96;92.63;95336.75;5048453;28;20199;-63
2023/06/23 02:50:20;;;;;;;15.18;13.50;;;;;;;20.00;92.64;95328.72;5049702;28;20303;-62
2023/06/23 02:52:51;;;;;;;15.27;13.77;;;;;;;19.87;93.16;95334.78;5049087;28;20223;-61
2023/06/23 02:55:21;;;;;;;15.40;13.93;;;;;;;19.85;93.55;95334.06;5048627;28;20290;-61
2023/06/23 02:57:50;;;;;;;15.48;13.90;;;;;;;19.99;92.90;95334.00;5050175;28;20203;-61
2023/06/23 03:00:22;;;;;;;18.58;14.65;;;;;;;20.03;92.36;95327.69;5049651;28;21083;-60
2023/06/23 03:02:54;;;;;;;15.35;13.80;;;;;;;20.00;92.45;95322.75;5050535;28;20203;-63
2023/06/23 03:05:22;;;;;;;24.42;13.90;;;;;;;19.97;92.73;95322.94;5049286;28;20207;-64
2023/06/23 03:07:51;;;;;;;23.38;15.18;;;;;;;20.04;92.40;95324.19;5049756;28;20233;-63
2023/06/23 03:10:18;;;;;;;19.80;15.50;;;;;;;20.01;92.35;95329.56;5049729;28;20284;-63
2023/06/23 03:12:46;;;;;;;15.68;14.10;;;;;;;19.96;92.84;95327.28;5049290;28;20276;-63
2023/06/23 03:15:13;;;;;;;18.75;14.60;;;;;;;19.98;92.64;95330.59;5048049;28;20203;-64
2023/06/23 03:17:41;;;;;;;15.30;13.90;;;;;;;20.07;92.79;95334.28;5050062;28;20660;-64
2023/06/23 03:20:12;;;;;;;15.15;13.75;;;;;;;20.16;92.06;95325.94;5047948;28;20264;-64
2023/06/23 03:22:44;;;;;;;19.98;14.30;;;;;;;20.27;91.76;95325.22;5050407;28;20264;-64
2023/06/23 03:25:15;;;;;;;16.73;13.70;;;;;;;20.30;91.37;95325.81;5047398;28;20195;-63
2023/06/23 03:27:44;;;;;;;16.10;14.57;;;;;;;20.34;91.10;95332.44;5049260;28;20288;-64
2023/06/23 03:30:18;;;;;;;16.83;14.25;;;;;;;20.43;90.90;95336.19;5049340;28;20218;-63
2023/06/23 03:32:49;;;;;;;22.73;14.50;;;;;;;20.72;90.28;95336.78;5048594;28;20667;-61
2023/06/23 03:35:19;;;;;;;14.68;12.98;;;;;;;21.48;87.63;95330.59;5047016;28;20210;-60
2023/06/23 03:37:50;;;;;;;16.67;13.15;;;;;;;22.61;83.01;95335.94;5047815;28;20302;-64
2023/06/23 03:40:20;;;;;;;14.00;12.43;;;;;;;23.87;76.29;95341.47;5047897;28;20979;-63
2023/06/23 03:42:51;;;;;;;23.60;11.82;;;;;;;25.05;70.96;95335.88;5046545;28;20680;-63
2023/06/23 03:45:20;;;;;;;13.68;11.82;;;;;;;26.13;67.23;95338.44;5047251;28;20293;-62
2023/06/23 03:47:49;;;;;;;14.43;11.40;;;;;;;26.91;63.68;95334.69;5048869;28;20211;-63
2023/06/23 03:50:20;;;;;;;13.52;12.32;;;;;;;27.42;62.19;95338.56;5048828;28;20738;-64
2023/06/23 03:52:50;;;;;;;14.20;12.93;;;;;;;27.72;60.57;95335.59;5048610;28;20242;-63
2023/06/23 03:55:20;;;;;;;16.75;12.82;;;;;;;27.57;60.58;95342.28;5048682;28;20199;-62
2023/06/23 03:57:50;;;;;;;38.00;27.23;;;;;;;26.88;62.49;95332.34;5048463;28;20740;-62
2023/06/23 04:00:19;;;;;;;29.00;23.45;;;;;;;26.16;65.21;95348.59;5049022;28;20652;-63
2023/06/23 04:02:50;;;;;;;21.00;14.75;;;;;;;25.63;67.33;95346.41;5048436;28;20315;-63
2023/06/23 04:05:17;;;;;;;15.45;14.15;;;;;;;25.35;68.34;95347.97;5048835;28;20264;-63
2023/06/23 04:07:45;;;;;;;15.05;13.75;;;;;;;25.22;68.74;95357.00;5049133;28;20292;-63
2023/06/23 04:10:15;;;;;;;23.05;13.88;;;;;;;25.05;69.73;95353.25;5047751;28;20321;-63
2023/06/23 04:12:43;;;;;;;21.58;14.73;;;;;;;24.96;69.89;95352.28;5048260;28;20235;-62
2023/06/23 04:15:11;;;;;;;26.88;21.05;;;;;;;24.98;70.55;95359.94;5048438;28;20221;-62
2023/06/23 04:17:40;;;;;;;26.23;22.05;;;;;;;25.03;70.12;95355.16;5048186;28;20223;-63
2023/06/23 04:20:09;;;;;;;19.98;16.70;;;;;;;24.96;70.58;95354.88;5048329;28;20243;-63
2023/06/23 04:22:39;;;;;;;16.85;14.93;;;;;;;25.00;70.96;95358.81;5048652;28;20661;-63
2023/06/23 04:25:08;;;;;;;18.10;15.00;;;;;;;25.16;70.40;95353.16;5047996;28;20742;-63
2023/06/23 04:27:37;;;;;;;16.40;14.65;;;;;;;25.35;69.70;95352.38;5047496;28;20230;-62
2023/06/23 04:30:06;;;;;;;18.92;13.52;;;;;;;25.60;68.56;95354.47;5047932;28;20303;-63
2023/06/23 04:32:35;;;;;;;18.42;14.55;;;;;;;25.98;67.57;95360.69;5049248;28;20566;-62
2023/06/23 04:35:02;;;;;;;18.67;14.98;;;;;;;26.39;66.51;95359.53;5048691;28;20207;-62
2023/06/23 04:37:38;;;;;;;26.60;22.17;;;;;;;26.92;64.60;95353.75;5047648;28;20227;-63
2023/06/23 04:40:10;;;;;;;39.22;29.95;;;;;;;27.54;62.82;95358.25;5052153;28;20195;-63
2023/06/23 04:42:45;;;;;;;18.65;16.73;;;;;;;28.09;60.83;95353.72;5048769;28;20276;-63
2023/06/23 04:45:15;;;;;;;16.90;15.38;;;;;;;28.72;57.92;95352.69;5048597;28;20198;-63
2023/06/23 04:47:46;;;;;;;16.13;14.45;;;;;;;29.04;57.97;95344.22;5047383;28;20246;-62
2023/06/23 04:50:16;;;;;;;17.20;14.80;;;;;;;29.42;56.27;95348.16;5047736;28;20258;-65
2023/06/23 04:52:53;;;;;;;19.58;14.77;;;;;;;29.84;54.82;95362.97;5047770;28;20234;-63
2023/06/23 04:55:21;;;;;;;16.98;14.82;;;;;;;30.00;54.33;95363.00;5046995;28;20199;-62
2023/06/23 04:57:55;;;;;;;17.15;14.90;;;;;;;30.06;54.10;95357.94;5047293;28;20640;-63
2023/06/23 05:00:24;;;;;;;21.02;14.88;;;;;;;30.29;53.22;95352.84;5046837;28;20222;-63
2023/06/23 05:02:55;;;;;;;18.08;15.63;;;;;;;30.52;52.42;95352.16;5047080;28;20198;-63
2023/06/23 05:05:26;;;;;;;16.35;14.57;;;;;;;30.49;52.53;95358.56;5050883;28;20199;-62
2023/06/23 05:07:54;;;;;;;22.98;15.88;;;;;;;30.74;52.13;95359.34;5048822;28;20234;-64
2023/06/23 05:10:22;;;;;;;16.73;15.13;;;;;;;31.43;50.56;95358.63;5049449;28;20218;-64
2023/06/23 05:12:52;;;;;;;18.95;17.27;;;;;;;31.58;50.06;95361.34;5048177;28;20282;-63
2023/06/23 05:15:20;;;;;;;18.20;14.32;;;;;;;31.42;50.30;95361.44;5045831;28;20269;-64
2023/06/23 05:17:50;;;;;;;17.75;16.00;;;;;;;31.20;50.60;95360.38;5047272;28;20672;-64
2023/06/23 05:20:20;;;;;;;16.00;14.70;;;;;;;30.98;51.10;95355.84;5047434;28;20269;-63
2023/06/23 05:22:49;;;;;;;19.30;15.55;;;;;;;30.53;51.96;95366.91;5047347;28;20657;-63
2023/06/23 05:25:18;;;;;;;20.67;15.30;;;;;;;29.97;53.78;95373.78;5046997;28;20273;-63
2023/06/23 05:27:46;;;;;;;18.92;17.02;;;;;;;29.51;54.50;95373.38;5046886;28;20222;-63
2023/06/23 05:30:18;;;;;;;19.20;15.40;;;;;;;29.16;55.98;95374.38;5046378;28;20246;-63
2023/06/23 05:32:48;;;;;;;19.73;16.75;;;;;;;28.62;57.58;95376.34;5047747;28;20203;-62
2023/06/23 05:35:16;;;;;;;17.63;15.75;;;;;;;28.57;57.71;95380.41;5046776;28;20219;-62
2023/06/23 05:37:45;;;;;;;19.40;17.40;;;;;;;28.32;58.76;95377.63;5047084;28;20251;-62
2023/06/23 05:40:14;;;;;;;26.33;17.83;;;;;;;28.37;58.59;95377.97;5046689;28;20274;-63
2023/06/23 05:42:41;;;;;;;22.15;16.27;;;;;;;28.62;58.27;95375.53;5045922;28;20217;-64
2023/06/23 05:45:09;;;;;;;23.63;16.65;;;;;;;29.09;56.78;95378.59;5046330;28;20264;-63
2023/06/23 05:47:42;;;;;;;23.75;18.67;;;;;;;29.43;55.81;95382.03;5045794;28;20226;-62
2023/06/23 05:50:19;;;;;;;21.70;16.58;;;;;;;30.26;53.58;95376.75;5046637;28;20245;-63
2023/06/23 05:52:52;;;;;;;18.48;15.95;;;;;;;31.88;49.78;95382.56;5044703;28;20242;-62
2023/06/23 05:55:20;;;;;;;22.77;18.92;;;;;;;32.88;46.63;95380.63;5046590;28;20235;-62
2023/06/23 05:57:50;;;;;;;19.52;17.38;;;;;;;33.32;45.78;95378.00;5046211;28;20817;-64
2023/06/23 06:00:21;;;;;;;24.67;17.52;;;;;;;33.74;45.06;95393.06;5046677;28;20234;-64
2023/06/23 06:02:52;;;;;;;24.65;17.52;;;;;;;34.18;43.49;95394.75;5047140;28;20211;-63
2023/06/23 06:05:21;;;;;;;22.40;18.40;;;;;;;33.92;44.14;95392.69;5046482;28;20219;-63
2023/06/23 06:07:50;;;;;;;20.58;18.38;;;;;;;33.51;44.57;95393.22;5046427;28;20713;-62
2023/06/23 06:10:19;;;;;;;18.05;16.13;;;;;;;33.69;44.52;95380.44;5046785;28;20231;-62
2023/06/23 06:12:47;;;;;;;22.08;19.40;;;;;;;34.15;44.13;95387.25;5046616;28;20227;-63
2023/06/23 06:15:14;;;;;;;22.65;18.33;;;;;;;34.86;42.97;95383.63;5045739;28;20199;-63
2023/06/23 06:17:43;;;;;;;20.80;17.60;;;;;;;36.49;39.31;95374.84;5046730;28;20270;-63
2023/06/23 06:20:14;;;;;;;18.95;17.05;;;;;;;39.07;35.23;95376.13;5046270;28;20230;-63
2023/06/23 06:22:44;;;;;;;17.67;15.93;;;;;;;42.00;30.28;95369.44;5046935;28;20203;-63
2023/06/23 06:25:13;;;;;;;18.63;16.88;;;;;;;43.94;27.67;95368.50;5046237;28;20203;-63
2023/06/23 06:27:43;;;;;;;21.58;19.52;;;;;;;45.63;24.95;95356.91;5045870;28;20241;-62
2023/06/23 06:30:12;;;;;;;17.85;16.15;;;;;;;47.12;23.14;95354.06;5045697;28;20246;-64
2023/06/23 06:32:43;;;;;;;18.73;16.70;;;;;;;48.28;21.15;95352.69;5046791;28;20264;-64
2023/06/23 06:35:13;;;;;;;16.55;14.85;;;;;;;49.25;20.19;95349.16;5046091;28;20195;-64
2023/06/23 06:37:47;;;;;;;16.83;15.20;;;;;;;49.88;20.22;95344.28;5045211;28;20211;-64
2023/06/23 06:40:17;;;;;;;17.02;14.00;;;;;;;50.18;19.55;95345.75;5045914;28;20206;-64
2023/06/23 06:42:44;;;;;;;15.63;13.20;;;;;;;50.65;19.49;95346.66;5045066;28;20261;-64
2023/06/23 06:45:11;;;;;;;20.67;14.13;;;;;;;51.09;19.10;95348.84;5046700;28;20207;-64
2023/06/23 06:47:43;;;;;;;15.63;14.05;;;;;;;51.61;18.48;95336.72;5046115;28;20252;-64
2023/06/23 06:50:13;;;;;;;16.73;13.55;;;;;;;51.69;18.16;95333.31;5046161;28;20206;-63
2023/06/23 06:52:41;;;;;;;14.93;13.30;;;;;;;52.02;17.84;95324.97;5046331;28;20222;-64
2023/06/23 06:55:10;;;;;;;16.38;14.38;;;;;;;52.38;17.06;95319.53;5044822;28;20592;-64
2023/06/23 06:57:38;;;;;;;18.17;14.00;;;;;;;51.45;18.09;95313.75;5045232;28;20669;-62
2023/06/23 07:00:05;;;;;;;15.05;13.63;;;;;;;50.84;18.36;95308.69;5048986;28;20209;-63
2023/06/23 07:02:33;;;;;;;14.32;13.23;;;;;;;51.22;18.22;95299.31;5049323;28;20222;-63
2023/06/23 07:05:01;;;;;;;17.98;15.13;;;;;;;51.45;17.76;95299.41;5046064;28;20252;-63
2023/06/23 07:07:30;;;;;;;14.98;13.88;;;;;;;52.06;17.58;95298.06;5048112;28;20603;-64
2023/06/23 07:09:57;;;;;;;14.77;13.43;;;;;;;52.84;17.05;95291.22;5048717;28;20199;-64
2023/06/23 07:12:24;;;;;;;15.02;13.68;;;;;;;52.22;16.56;95294.66;5046507;28;20261;-63
2023/06/23 07:14:51;;;;;;;15.45;12.55;;;;;;;50.83;18.25;95297.06;5045125;28;20202;-63
2023/06/23 07:17:18;;;;;;;18.67;11.05;;;;;;;50.80;18.35;95300.38;5046635;28;20205;-64
2023/06/23 07:19:44;;;;;;;14.18;13.00;;;;;;;50.89;18.17;95295.88;5047201;28;20293;-64
2023/06/23 07:22:11;;;;;;;20.08;16.02;;;;;;;51.32;18.16;95282.88;5048130;28;20673;-63
2023/06/23 07:24:39;;;;;;;14.10;12.40;;;;;;;52.16;16.85;95286.97;5047435;28;20207;-63
2023/06/23 07:27:07;;;;;;;17.58;14.20;;;;;;;51.48;16.82;95291.44;5048479;28;20234;-62
2023/06/23 07:29:34;;;;;;;14.50;13.50;;;;;;;50.27;18.21;95287.22;5048465;28;20209;-63
2023/06/23 07:32:02;;;;;;;14.80;13.40;;;;;;;49.44;18.59;95285.19;5046399;28;20267;-63
2023/06/23 07:34:29;;;;;;;15.63;14.05;;;;;;;49.76;18.64;95286.38;5046926;28;20241;-64
2023/06/23 07:36:56;;;;;;;15.02;12.60;;;;;;;51.22;18.07;95298.50;5045829;28;20206;-63
2023/06/23 07:39:22;;;;;;;14.23;12.57;;;;;;;51.62;17.73;95289.56;5046478;28;20202;-64
2023/06/23 07:41:51;;;;;;;19.90;18.02;;;;;;;51.07;18.15;95287.97;5044828;28;20198;-63
2023/06/23 07:44:17;;;;;;;14.88;13.55;;;;;;;50.47;18.04;95290.69;5047038;28;20259;-63
2023/06/23 07:46:44;;;;;;;14.85;13.43;;;;;;;50.45;18.59;95287.47;5047882;28;20210;-62
2023/06/23 07:49:11;;;;;;;14.32;12.90;;;;;;;48.73;19.77;95291.41;5049205;28;20218;-62
2023/06/23 07:51:37;;;;;;;13.45;12.27;;;;;;;48.50;20.14;95282.19;5047863;28;20218;-63
2023/06/23 07:54:04;;;;;;;16.30;14.63;;;;;;;48.76;19.34;95288.09;5046172;28;20260;-64
2023/06/23 07:56:31;;;;;;;13.55;12.25;;;;;;;48.65;20.44;95289.31;5047068;28;20198;-65
2023/06/23 07:58:59;;;;;;;13.95;12.60;;;;;;;49.58;19.35;95280.69;5048412;28;20272;-64
2023/06/23 08:01:25;;;;;;;20.95;16.35;;;;;;;49.46;19.43;95277.59;5048472;28;20580;-63
2023/06/23 08:03:52;;;;;;;17.35;14.85;;;;;;;49.80;18.74;95276.59;5049200;28;20696;-64
2023/06/23 08:06:23;;;;;;;13.45;12.35;;;;;;;50.40;18.32;95277.56;5048704;28;20590;-64
2023/06/23 08:08:50;;;;;;;12.40;11.55;;;;;;;50.94;17.67;95279.56;5047998;28;20198;-64
2023/06/23 08:11:17;;;;;;;13.48;12.02;;;;;;;50.47;18.51;95275.28;5047621;28;20226;-64
2023/06/23 08:13:44;;;;;;;12.05;11.10;;;;;;;51.59;17.01;95289.31;5048270;28;20264;-64
2023/06/23 08:16:12;;;;;;;14.05;12.82;;;;;;;51.44;16.94;95276.13;5048315;28;20235;-61
2023/06/23 08:18:38;;;;;;;15.02;13.60;;;;;;;51.25;17.69;95273.50;5049278;28;20202;-65
2023/06/23 08:21:05;;;;;;;15.05;13.50;;;;;;;50.73;17.89;95278.34;5048610;28;20203;-65
2023/06/23 08:23:32;;;;;;;14.70;13.25;;;;;;;50.73;18.10;95278.34;5048097;28;20887;-63
2023/06/23 08:25:58;;;;;;;14.00;12.57;;;;;;;50.83;17.93;95274.63;5047026;28;20236;-65
2023/06/23 08:28:25;;;;;;;13.23;12.07;;;;;;;51.21;17.14;95264.41;5047923;28;20272;-64
2023/06/23 08:30:52;;;;;;;12.15;11.23;;;;;;;50.56;18.05;95272.66;5048318;28;20203;-64
2023/06/23 08:33:20;;;;;;;12.57;11.52;;;;;;;50.67;17.55;95271.41;5048326;28;20242;-63
2023/06/23 08:35:46;;;;;;;13.05;11.43;;;;;;;51.18;17.54;95262.31;5048069;28;20207;-63
2023/06/23 08:38:14;;;;;;;11.43;10.52;;;;;;;50.75;17.76;95262.56;5046760;28;20206;-64
2023/06/23 08:40:41;;;;;;;12.82;11.45;;;;;;;50.88;17.32;95272.63;5048527;28;20202;-64
2023/06/23 08:43:09;;;;;;;11.57;10.77;;;;;;;50.66;17.56;95261.69;5048043;28;20296;-63
2023/06/23 08:45:40;;;;;;;12.55;11.57;;;;;;;50.33;18.12;95267.13;5048155;28;20260;-64
2023/06/23 08:48:08;;;;;;;12.80;11.27;;;;;;;49.89;18.01;95253.22;5047665;28;20194;-64
2023/06/23 08:50:37;;;;;;;11.90;10.88;;;;;;;50.47;17.87;95258.25;5047843;28;20292;-64
2023/06/23 08:53:05;;;;;;;11.18;10.18;;;;;;;52.04;16.70;95252.25;5047243;28;20222;-63
2023/06/23 08:55:33;;;;;;;12.15;10.90;;;;;;;51.97;15.56;95257.34;5047655;28;20210;-64
2023/06/23 08:58:00;;;;;;;10.73;9.80;;;;;;;50.26;17.67;95255.88;5047580;28;20198;-64
2023/06/23 09:00:27;;;;;;;10.35;9.65;;;;;;;50.18;17.81;95256.53;5047099;28;20736;-63
2023/06/23 09:02:54;;;;;;;10.73;10.02;;;;;;;49.45;18.17;95250.88;5048081;28;20217;-62
2023/06/23 09:05:21;;;;;;;9.73;9.20;;;;;;;48.96;18.42;95244.75;5047232;28;20209;-64
2023/06/23 09:07:50;;;;;;;11.50;10.60;;;;;;;49.53;18.17;95244.81;5047256;28;20203;-64
2023/06/23 09:10:17;;;;;;;10.65;9.52;;;;;;;49.49;18.33;95244.59;5046937;28;20688;-64
2023/06/23 09:13:20;;;;;;;11.43;10.55;;;;;;;48.54;19.15;95229.25;5046724;28;20305;-64
2023/06/23 09:15:48;;;;;;;10.32;9.48;;;;;;;48.33;19.24;95230.53;5041044;28;20684;-62
2023/06/23 09:18:16;;;;;;;10.80;9.88;;;;;;;48.75;18.87;95229.88;5045888;28;20334;-62
2023/06/23 09:20:46;;;;;;;10.38;9.52;;;;;;;48.45;18.93;95230.97;5045864;28;20232;-64
2023/06/23 09:23:18;;;;;;;9.82;9.23;;;;;;;47.76;19.39;95224.00;5046329;28;20222;-63
2023/06/23 09:25:47;;;;;;;11.23;9.43;;;;;;;46.86;20.48;95221.47;5045831;28;20226;-61
2023/06/23 09:28:25;;;;;;;10.65;9.55;;;;;;;45.85;21.09;95222.38;5046723;28;20901;-63
2023/06/23 09:30:52;;;;;;;10.00;9.15;;;;;;;45.73;20.84;95224.56;5046764;28;20207;-62
2023/06/23 09:33:20;;;;;;;10.02;9.32;;;;;;;44.77;22.06;95227.72;5046018;28;20265;-62
2023/06/23 09:35:51;;;;;;;12.98;9.45;;;;;;;44.21;22.56;95227.34;5045855;28;20245;-62
2023/06/23 09:38:21;;;;;;;10.00;8.95;;;;;;;43.67;23.14;95224.75;5044977;28;20234;-62
2023/06/23 09:40:48;;;;;;;10.60;9.55;;;;;;;43.05;23.48;95221.66;5044679;28;20754;-62
2023/06/23 09:43:16;;;;;;;9.82;9.20;;;;;;;41.66;25.32;95235.06;5044968;28;20229;-63
2023/06/23 09:45:43;;;;;;;10.77;9.82;;;;;;;40.48;26.61;95227.59;5044961;28;20286;-61
2023/06/23 09:48:17;;;;;;;8.90;8.30;;;;;;;39.56;27.93;95224.59;5044696;28;20221;-63
2023/06/23 09:50:43;;;;;;;9.40;8.73;;;;;;;38.69;29.45;95222.16;5044982;28;20664;-61
2023/06/23 09:53:12;;;;;;;10.50;9.70;;;;;;;37.49;31.20;95218.06;5047053;28;20254;-63
2023/06/23 09:55:40;;;;;;;11.13;9.43;;;;;;;36.30;33.41;95229.09;5046628;28;20195;-65
2023/06/23 09:58:08;;;;;;;10.73;9.82;;;;;;;34.96;34.76;95215.03;5046407;28;20206;-63
2023/06/23 10:00:35;;;;;;;9.50;8.80;;;;;;;34.37;38.14;95220.03;5046701;28;20310;-62
2023/06/23 10:03:02;;;;;;;10.90;9.95;;;;;;;33.85;39.12;95220.44;5047111;28;20195;-63
2023/06/23 10:05:34;;;;;;;10.38;9.50;;;;;;;33.62;40.31;95221.44;5045808;28;20681;-64
2023/06/23 10:08:09;;;;;;;11.15;10.02;;;;;;;33.28;40.49;95216.84;5046400;28;20210;-63
2023/06/23 10:10:43;;;;;;;12.10;9.57;;;;;;;33.04;40.84;95218.00;5046089;28;20661;-63
2023/06/23 10:13:10;;;;;;;10.68;9.55;;;;;;;33.09;41.35;95215.63;5046972;28;20225;-64
2023/06/23 10:15:39;;;;;;;12.23;9.52;;;;;;;32.90;40.07;95213.59;5046142;28;20635;-63
2023/06/23 10:18:06;;;;;;;10.63;9.30;;;;;;;32.61;41.48;95210.97;5046850;28;20207;-63
2023/06/23 10:20:33;;;;;;;9.85;9.18;;;;;;;32.45;42.27;95204.88;5045460;28;20581;-64
2023/06/23 10:23:01;;;;;;;11.07;9.07;;;;;;;32.39;42.72;95202.19;5046930;28;20647;-63
2023/06/23 10:25:29;;;;;;;10.27;9.10;;;;;;;32.13;43.40;95203.41;5045926;28;20231;-64
2023/06/23 10:28:00;;;;;;;13.85;10.10;;;;;;;31.84;44.30;95199.91;5046143;28;20317;-63
2023/06/23 10:30:29;;;;;;;9.57;8.70;;;;;;;32.08;43.86;95195.25;5046528;28;20238;-63
2023/06/23 10:32:57;;;;;;;9.55;8.82;;;;;;;32.04;44.18;95198.41;5046684;28;20261;-63
2023/06/23 10:35:25;;;;;;;9.25;8.27;;;;;;;31.72;42.67;95194.25;5049498;28;20195;-63
2023/06/23 10:38:03;;;;;;;12.18;9.75;;;;;;;31.52;44.32;95187.84;5052632;28;20261;-63
2023/06/23 10:40:38;;;;;;;10.38;9.25;;;;;;;31.52;42.76;95195.72;5051308;28;20207;-62
2023/06/23 10:43:08;;;;;;;9.13;8.32;;;;;;;31.49;42.58;95191.63;5050883;28;20791;-62
2023/06/23 10:45:36;;;;;;;10.23;9.30;;;;;;;31.54;43.59;95188.47;5050538;28;20207;-62
2023/06/23 10:48:02;;;;;;;10.95;9.27;;;;;;;31.43;44.89;95185.28;5050700;28;20198;-62
2023/06/23 10:50:30;;;;;;;9.45;8.35;;;;;;;31.45;44.43;95182.47;5050367;28;20284;-62
2023/06/23 10:53:08;;;;;;;9.63;8.50;;;;;;;31.49;42.64;95177.69;5049798;28;20218;-62
2023/06/23 10:55:40;;;;;;;9.75;8.63;;;;;;;31.35;41.99;95168.78;5049911;28;20264;-62
2023/06/23 10:58:17;;;;;;;8.68;7.97;;;;;;;31.34;43.80;95169.78;5049649;28;20203;-62
2023/06/23 11:00:59;;;;;;;11.07;9.95;;;;;;;31.28;45.11;95166.03;5049966;28;20290;-62
2023/06/23 11:03:28;;;;;;;10.85;9.65;;;;;;;31.00;45.50;95168.31;5050096;28;20237;-63
2023/06/23 11:05:56;;;;;;;14.77;10.35;;;;;;;30.94;45.46;95166.38;5049253;28;20222;-64
2023/06/23 11:08:32;;;;;;;11.55;8.18;;;;;;;31.03;44.04;95167.16;5049452;28;20696;-63
2023/06/23 11:11:01;;;;;;;8.35;7.65;;;;;;;30.97;42.04;95167.84;5049524;28;20293;-62
2023/06/23 11:13:42;;;;;;;9.05;7.80;;;;;;;31.17;44.14;95163.03;5049528;28;20300;-63
2023/06/23 11:16:14;;;;;;;9.40;8.43;;;;;;;31.34;43.34;95151.38;5046963;28;20272;-63
2023/06/23 11:18:49;;;;;;;10.57;9.25;;;;;;;31.30;44.23;95147.47;5049420;28;20207;-62
2023/06/23 11:21:17;;;;;;;9.57;8.60;;;;;;;31.22;45.05;95142.28;5048490;28;20236;-64
2023/06/23 11:24:12;;;;;;;11.77;9.02;;;;;;;31.28;43.39;95139.78;5049705;28;20292;-61
2023/06/23 11:26:43;;;;;;;9.85;8.75;;;;;;;31.33;44.10;95145.31;5048802;28;20712;-64
2023/06/23 11:29:18;;;;;;;10.40;9.05;;;;;;;31.20;44.41;95133.75;5049502;28;20203;-63